sensor_id;sensor_type;location;lat;lon;timestamp;pressure;altitude;pressure_sealevel;temperature;humidity
10716;BME280;5409;42.620;23.316;2022-08-06T00:02:18;92185.38;;;19.55;100.00
10716;BME280;5409;42.620;23.316;2022-08-06T00:04:46;92181.59;;;19.48;100.00
10716;BME280;5409;42.620;23.316;2022-08-06T00:07:12;92186.38;;;19.47;100.00
10716;BME280;5409;42.620;23.316;2022-08-06T00:09:39;92183.81;;;19.44;100.00
10716;BME280;5409;42.620;23.316;2022-08-06T00:12:08;92190.88;;;19.45;100.00
10716;BME280;5409;42.620;23.316;2022-08-06T00:14:35;92198.41;;;19.44;100.00
10716;BME280;5409;42.620;23.316;2022-08-06T00:17:02;92192.13;;;19.44;100.00
10716;BME280;5409;42.620;23.316;2022-08-06T00:19:29;92195.66;;;19.50;100.00
10716;BME280;5409;42.620;23.316;2022-08-06T00:21:56;92202.19;;;19.47;100.00
10716;BME280;5409;42.620;23.316;2022-08-06T00:24:23;92197.66;;;19.44;100.00
10716;BME280;5409;42.620;23.316;2022-08-06T00:26:50;92189.81;;;19.26;100.00
10716;BME280;5409;42.620;23.316;2022-08-06T00:29:18;92196.59;;;19.25;100.00
10716;BME280;5409;42.620;23.316;2022-08-06T00:31:45;92200.59;;;19.24;100.00
10716;BME280;5409;42.620;23.316;2022-08-06T00:34:11;92203.09;;;19.22;100.00
10716;BME280;5409;42.620;23.316;2022-08-06T00:36:38;92201.06;;;19.22;100.00
10716;BME280;5409;42.620;23.316;2022-08-06T00:39:06;92203.59;;;19.20;100.00
10716;BME280;5409;42.620;23.316;2022-08-06T00:41:34;92194.03;;;19.21;100.00
10716;BME280;5409;42.620;23.316;2022-08-06T00:44:01;92191.69;;;19.09;100.00
10716;BME280;5409;42.620;23.316;2022-08-06T00:46:29;92195.94;;;19.04;100.00
10716;BME280;5409;42.620;23.316;2022-08-06T00:48:56;92188.66;;;19.01;100.00
10716;BME280;5409;42.620;23.316;2022-08-06T00:51:23;92194.69;;;19.05;100.00
10716;BME280;5409;42.620;23.316;2022-08-06T00:53:50;92191.69;;;19.03;100.00
10716;BME280;5409;42.620;23.316;2022-08-06T00:56:17;92196.44;;;19.03;100.00
10716;BME280;5409;42.620;23.316;2022-08-06T00:58:44;92186.63;;;19.02;100.00
10716;BME280;5409;42.620;23.316;2022-08-06T01:01:11;92192.38;;;18.93;100.00
10716;BME280;5409;42.620;23.316;2022-08-06T01:03:39;92199.19;;;18.97;100.00
10716;BME280;5409;42.620;23.316;2022-08-06T01:06:06;92193.88;;;18.94;100.00
10716;BME280;5409;42.620;23.316;2022-08-06T01:08:33;92194.91;;;18.96;100.00
10716;BME280;5409;42.620;23.316;2022-08-06T01:11:00;92197.66;;;18.96;100.00
10716;BME280;5409;42.620;23.316;2022-08-06T01:13:26;92196.91;;;18.96;100.00
10716;BME280;5409;42.620;23.316;2022-08-06T01:15:58;92193.66;;;18.97;100.00
10716;BME280;5409;42.620;23.316;2022-08-06T01:18:31;92188.66;;;19.01;100.00
10716;BME280;5409;42.620;23.316;2022-08-06T01:21:13;92181.81;;;18.97;100.00
10716;BME280;5409;42.620;23.316;2022-08-06T01:24:02;92184.84;;;18.93;100.00
10716;BME280;5409;42.620;23.316;2022-08-06T01:26:39;92187.56;;;18.88;100.00
10716;BME280;5409;42.620;23.316;2022-08-06T01:29:11;92192.03;;;18.74;100.00
10716;BME280;5409;42.620;23.316;2022-08-06T01:31:46;92187.22;;;18.69;100.00
10716;BME280;5409;42.620;23.316;2022-08-06T01:34:17;92172.81;;;18.60;100.00
10716;BME280;5409;42.620;23.316;2022-08-06T01:36:48;92180.09;;;18.57;100.00
10716;BME280;5409;42.620;23.316;2022-08-06T01:39:18;92178.09;;;18.58;100.00
10716;BME280;5409;42.620;23.316;2022-08-06T01:41:49;92176.88;;;18.64;100.00
10716;BME280;5409;42.620;23.316;2022-08-06T01:44:20;92177.06;;;18.55;100.00
10716;BME280;5409;42.620;23.316;2022-08-06T01:46:51;92178.31;;;18.54;100.00
10716;BME280;5409;42.620;23.316;2022-08-06T01:49:23;92174.06;;;18.53;100.00
10716;BME280;5409;42.620;23.316;2022-08-06T01:51:52;92177.53;;;18.48;100.00
10716;BME280;5409;42.620;23.316;2022-08-06T01:54:20;92183.22;;;18.39;100.00
10716;BME280;5409;42.620;23.316;2022-08-06T01:56:50;92177.25;;;18.46;100.00
10716;BME280;5409;42.620;23.316;2022-08-06T01:59:21;92178.25;;;18.43;100.00
10716;BME280;5409;42.620;23.316;2022-08-06T02:01:52;92172.44;;;18.41;100.00
10716;BME280;5409;42.620;23.316;2022-08-06T02:04:22;92170.72;;;18.44;100.00
10716;BME280;5409;42.620;23.316;2022-08-06T02:06:50;92165.22;;;18.44;100.00
10716;BME280;5409;42.620;23.316;2022-08-06T02:09:20;92167.16;;;18.38;100.00
10716;BME280;5409;42.620;23.316;2022-08-06T02:11:49;92168.16;;;18.35;100.00
10716;BME280;5409;42.620;23.316;2022-08-06T02:14:20;92164.06;;;18.25;100.00
10716;BME280;5409;42.620;23.316;2022-08-06T02:16:48;92154.75;;;18.23;100.00
10716;BME280;5409;42.620;23.316;2022-08-06T02:19:16;92152.53;;;18.27;100.00
10716;BME280;5409;42.620;23.316;2022-08-06T02:21:47;92156.31;;;18.29;100.00
10716;BME280;5409;42.620;23.316;2022-08-06T02:24:15;92149.34;;;18.34;100.00
10716;BME280;5409;42.620;23.316;2022-08-06T02:26:42;92151.38;;;18.38;100.00
10716;BME280;5409;42.620;23.316;2022-08-06T02:29:14;92150.59;;;18.38;100.00
10716;BME280;5409;42.620;23.316;2022-08-06T02:31:44;92144.09;;;18.41;100.00
10716;BME280;5409;42.620;23.316;2022-08-06T02:34:11;92146.88;;;18.41;100.00
10716;BME280;5409;42.620;23.316;2022-08-06T02:36:40;92150.09;;;18.39;100.00
10716;BME280;5409;42.620;23.316;2022-08-06T02:39:12;92147.34;;;18.39;100.00
10716;BME280;5409;42.620;23.316;2022-08-06T02:41:42;92152.88;;;18.39;100.00
10716;BME280;5409;42.620;23.316;2022-08-06T02:44:13;92150.59;;;18.33;100.00
10716;BME280;5409;42.620;23.316;2022-08-06T02:46:48;92151.81;;;18.32;100.00
10716;BME280;5409;42.620;23.316;2022-08-06T02:49:19;92156.56;;;18.31;100.00
10716;BME280;5409;42.620;23.316;2022-08-06T02:51:51;92154.09;;;18.33;100.00
10716;BME280;5409;42.620;23.316;2022-08-06T02:54:22;92154.13;;;18.38;100.00
10716;BME280;5409;42.620;23.316;2022-08-06T02:56:51;92155.19;;;18.46;100.00
10716;BME280;5409;42.620;23.316;2022-08-06T02:59:28;92152.69;;;18.48;100.00
10716;BME280;5409;42.620;23.316;2022-08-06T03:02:00;92158.72;;;18.52;100.00
10716;BME280;5409;42.620;23.316;2022-08-06T03:04:30;92158.00;;;18.52;100.00
10716;BME280;5409;42.620;23.316;2022-08-06T03:07:03;92159.94;;;18.46;100.00
10716;BME280;5409;42.620;23.316;2022-08-06T03:09:32;92159.41;;;18.42;100.00
10716;BME280;5409;42.620;23.316;2022-08-06T03:11:59;92166.19;;;18.41;100.00
10716;BME280;5409;42.620;23.316;2022-08-06T03:14:28;92165.94;;;18.39;100.00
10716;BME280;5409;42.620;23.316;2022-08-06T03:16:56;92156.16;;;18.43;100.00
10716;BME280;5409;42.620;23.316;2022-08-06T03:19:25;92165.19;;;18.38;100.00
10716;BME280;5409;42.620;23.316;2022-08-06T03:21:53;92168.19;;;18.40;100.00
10716;BME280;5409;42.620;23.316;2022-08-06T03:24:22;92167.16;;;18.38;100.00
10716;BME280;5409;42.620;23.316;2022-08-06T03:26:51;92164.16;;;18.41;100.00
10716;BME280;5409;42.620;23.316;2022-08-06T03:29:19;92168.94;;;18.41;100.00
10716;BME280;5409;42.620;23.316;2022-08-06T03:31:46;92159.41;;;18.37;100.00
10716;BME280;5409;42.620;23.316;2022-08-06T03:34:13;92152.38;;;18.36;100.00
10716;BME280;5409;42.620;23.316;2022-08-06T03:36:41;92160.63;;;18.36;100.00
10716;BME280;5409;42.620;23.316;2022-08-06T03:39:10;92151.84;;;18.37;100.00
10716;BME280;5409;42.620;23.316;2022-08-06T03:41:38;92154.38;;;18.40;100.00
10716;BME280;5409;42.620;23.316;2022-08-06T03:44:06;92158.44;;;18.45;100.00
10716;BME280;5409;42.620;23.316;2022-08-06T03:46:46;92153.19;;;18.47;100.00
10716;BME280;5409;42.620;23.316;2022-08-06T03:49:18;92153.22;;;18.52;100.00
10716;BME280;5409;42.620;23.316;2022-08-06T03:51:49;92159.50;;;18.53;100.00
10716;BME280;5409;42.620;23.316;2022-08-06T03:54:19;92166.53;;;18.54;100.00
10716;BME280;5409;42.620;23.316;2022-08-06T03:56:48;92159.53;;;18.58;100.00
10716;BME280;5409;42.620;23.316;2022-08-06T03:59:18;92163.00;;;18.53;100.00
10716;BME280;5409;42.620;23.316;2022-08-06T04:01:46;92156.50;;;18.56;100.00
10716;BME280;5409;42.620;23.316;2022-08-06T04:04:15;92166.06;;;18.61;100.00
10716;BME280;5409;42.620;23.316;2022-08-06T04:06:43;92162.75;;;18.51;100.00
10716;BME280;5409;42.620;23.316;2022-08-06T04:09:12;92165.50;;;18.51;100.00
10716;BME280;5409;42.620;23.316;2022-08-06T04:11:41;92167.78;;;18.53;100.00
10716;BME280;5409;42.620;23.316;2022-08-06T04:14:08;92167.81;;;18.58;100.00
10716;BME280;5409;42.620;23.316;2022-08-06T04:16:36;92177.59;;;18.59;100.00
10716;BME280;5409;42.620;23.316;2022-08-06T04:19:05;92178.41;;;18.65;100.00
10716;BME280;5409;42.620;23.316;2022-08-06T04:21:31;92189.47;;;18.71;100.00
10716;BME280;5409;42.620;23.316;2022-08-06T04:23:59;92182.72;;;18.77;100.00
10716;BME280;5409;42.620;23.316;2022-08-06T04:26:27;92190.28;;;18.82;100.00
10716;BME280;5409;42.620;23.316;2022-08-06T04:28:56;92186.81;;;18.87;100.00
10716;BME280;5409;42.620;23.316;2022-08-06T04:31:25;92185.34;;;18.92;100.00
10716;BME280;5409;42.620;23.316;2022-08-06T04:33:54;92182.59;;;18.97;100.00
10716;BME280;5409;42.620;23.316;2022-08-06T04:36:21;92184.63;;;19.02;100.00
10716;BME280;5409;42.620;23.316;2022-08-06T04:38:49;92192.47;;;19.09;100.00
10716;BME280;5409;42.620;23.316;2022-08-06T04:41:16;92189.03;;;19.20;100.00
10716;BME280;5409;42.620;23.316;2022-08-06T04:43:45;92198.09;;;19.26;100.00
10716;BME280;5409;42.620;23.316;2022-08-06T04:46:12;92190.34;;;19.35;100.00
10716;BME280;5409;42.620;23.316;2022-08-06T04:48:39;92193.63;;;19.45;100.00
10716;BME280;5409;42.620;23.316;2022-08-06T04:51:06;92189.88;;;19.53;100.00
10716;BME280;5409;42.620;23.316;2022-08-06T04:53:36;92198.72;;;19.62;100.00
10716;BME280;5409;42.620;23.316;2022-08-06T04:56:04;92196.50;;;19.72;100.00
10716;BME280;5409;42.620;23.316;2022-08-06T04:58:31;92206.03;;;19.76;100.00
10716;BME280;5409;42.620;23.316;2022-08-06T05:01:00;92212.34;;;19.82;100.00
10716;BME280;5409;42.620;23.316;2022-08-06T05:03:27;92218.66;;;19.88;100.00
10716;BME280;5409;42.620;23.316;2022-08-06T05:05:56;92215.91;;;19.94;100.00
10716;BME280;5409;42.620;23.316;2022-08-06T05:08:26;92228.53;;;20.00;100.00
10716;BME280;5409;42.620;23.316;2022-08-06T05:10:56;92215.19;;;20.04;100.00
10716;BME280;5409;42.620;23.316;2022-08-06T05:13:29;92225.28;;;20.13;100.00
10716;BME280;5409;42.620;23.316;2022-08-06T05:16:00;92224.53;;;20.23;100.00
10716;BME280;5409;42.620;23.316;2022-08-06T05:18:33;92216.22;;;20.29;100.00
10716;BME280;5409;42.620;23.316;2022-08-06T05:21:02;92218.00;;;20.37;100.00
10716;BME280;5409;42.620;23.316;2022-08-06T05:23:44;92216.47;;;20.47;100.00
10716;BME280;5409;42.620;23.316;2022-08-06T05:26:12;92214.47;;;20.53;100.00
10716;BME280;5409;42.620;23.316;2022-08-06T05:28:39;92213.97;;;20.60;100.00
10716;BME280;5409;42.620;23.316;2022-08-06T05:31:08;92214.97;;;20.63;100.00
10716;BME280;5409;42.620;23.316;2022-08-06T05:33:37;92221.25;;;20.68;100.00
10716;BME280;5409;42.620;23.316;2022-08-06T05:36:05;92218.50;;;20.79;100.00
10716;BME280;5409;42.620;23.316;2022-08-06T05:38:34;92222.28;;;20.93;100.00
10716;BME280;5409;42.620;23.316;2022-08-06T05:41:00;92222.03;;;21.02;100.00
10716;BME280;5409;42.620;23.316;2022-08-06T05:43:27;92231.56;;;21.17;100.00
10716;BME280;5409;42.620;23.316;2022-08-06T05:45:57;92226.47;;;21.32;100.00
10716;BME280;5409;42.620;23.316;2022-08-06T05:48:30;92223.91;;;21.45;100.00
10716;BME280;5409;42.620;23.316;2022-08-06T05:51:12;92229.44;;;21.56;100.00
10716;BME280;5409;42.620;23.316;2022-08-06T05:53:44;92225.13;;;21.66;99.60
10716;BME280;5409;42.620;23.316;2022-08-06T05:56:17;92215.47;;;21.78;98.03
10716;BME280;5409;42.620;23.316;2022-08-06T05:58:48;92220.75;;;21.87;100.00
10716;BME280;5409;42.620;23.316;2022-08-06T06:01:17;92222.69;;;22.03;100.00
10716;BME280;5409;42.620;23.316;2022-08-06T06:03:46;92217.47;;;22.23;100.00
10716;BME280;5409;42.620;23.316;2022-08-06T06:06:14;92224.03;;;22.26;96.70
10716;BME280;5409;42.620;23.316;2022-08-06T06:08:41;92221.97;;;22.37;97.57
10716;BME280;5409;42.620;23.316;2022-08-06T06:11:08;92224.38;;;22.52;95.64
10716;BME280;5409;42.620;23.316;2022-08-06T06:13:37;92233.16;;;22.61;96.54
10716;BME280;5409;42.620;23.316;2022-08-06T06:16:11;92225.81;;;22.64;92.68
10716;BME280;5409;42.620;23.316;2022-08-06T06:18:52;92219.66;;;22.76;95.91
10716;BME280;5409;42.620;23.316;2022-08-06T06:21:32;92225.63;;;22.86;93.15
10716;BME280;5409;42.620;23.316;2022-08-06T06:24:08;92219.19;;;23.02;92.66
10716;BME280;5409;42.620;23.316;2022-08-06T06:26:44;92229.03;;;23.03;89.55
10716;BME280;5409;42.620;23.316;2022-08-06T06:29:16;92221.28;;;23.19;90.27
10716;BME280;5409;42.620;23.316;2022-08-06T06:31:51;92224.03;;;23.25;88.64
10716;BME280;5409;42.620;23.316;2022-08-06T06:34:38;92225.06;;;23.22;87.59
10716;BME280;5409;42.620;23.316;2022-08-06T06:37:17;92222.94;;;23.33;88.03
10716;BME280;5409;42.620;23.316;2022-08-06T06:39:48;92219.63;;;23.35;87.39
10716;BME280;5409;42.620;23.316;2022-08-06T06:42:24;92215.84;;;23.32;91.98
10716;BME280;5409;42.620;23.316;2022-08-06T06:44:57;92216.88;;;23.53;89.32
10716;BME280;5409;42.620;23.316;2022-08-06T06:47:29;92210.81;;;23.55;88.20
10716;BME280;5409;42.620;23.316;2022-08-06T06:50:04;92221.13;;;23.60;88.05
10716;BME280;5409;42.620;23.316;2022-08-06T06:52:39;92209.50;;;23.80;87.50
10716;BME280;5409;42.620;23.316;2022-08-06T06:55:09;92207.56;;;23.93;87.93
10716;BME280;5409;42.620;23.316;2022-08-06T06:57:42;92209.91;;;24.08;86.66
10716;BME280;5409;42.620;23.316;2022-08-06T07:00:11;92214.59;;;24.18;88.23
10716;BME280;5409;42.620;23.316;2022-08-06T07:02:40;92211.16;;;24.25;84.65
10716;BME280;5409;42.620;23.316;2022-08-06T07:05:10;92211.72;;;24.24;85.52
10716;BME280;5409;42.620;23.316;2022-08-06T07:07:39;92205.22;;;24.34;88.12
10716;BME280;5409;42.620;23.316;2022-08-06T07:10:08;92205.28;;;24.47;85.85
10716;BME280;5409;42.620;23.316;2022-08-06T07:12:37;92210.19;;;24.59;83.97
10716;BME280;5409;42.620;23.316;2022-08-06T07:15:07;92210.94;;;24.60;82.25
10716;BME280;5409;42.620;23.316;2022-08-06T07:17:36;92217.63;;;24.70;84.11
10716;BME280;5409;42.620;23.316;2022-08-06T07:20:07;92220.16;;;24.86;82.66
10716;BME280;5409;42.620;23.316;2022-08-06T07:22:38;92211.25;;;24.88;86.78
10716;BME280;5409;42.620;23.316;2022-08-06T07:25:07;92206.75;;;24.85;82.52
10716;BME280;5409;42.620;23.316;2022-08-06T07:27:38;92205.97;;;24.84;81.23
10716;BME280;5409;42.620;23.316;2022-08-06T07:30:07;92200.19;;;24.82;82.24
10716;BME280;5409;42.620;23.316;2022-08-06T07:32:34;92200.09;;;24.88;82.34
10716;BME280;5409;42.620;23.316;2022-08-06T07:35:03;92207.81;;;24.82;80.14
10716;BME280;5409;42.620;23.316;2022-08-06T07:37:31;92199.28;;;24.93;82.87
10716;BME280;5409;42.620;23.316;2022-08-06T07:40:01;92200.72;;;25.12;78.85
10716;BME280;5409;42.620;23.316;2022-08-06T07:42:29;92202.81;;;25.50;76.51
10716;BME280;5409;42.620;23.316;2022-08-06T07:44:59;92195.59;;;25.94;73.35
10716;BME280;5409;42.620;23.316;2022-08-06T07:47:30;92187.34;;;26.35;72.96
10716;BME280;5409;42.620;23.316;2022-08-06T07:49:59;92207.69;;;26.35;74.75
10716;BME280;5409;42.620;23.316;2022-08-06T07:52:27;92192.66;;;26.25;74.91
10716;BME280;5409;42.620;23.316;2022-08-06T07:54:54;92200.34;;;26.78;76.73
10716;BME280;5409;42.620;23.316;2022-08-06T07:57:24;92200.97;;;27.05;69.42
10716;BME280;5409;42.620;23.316;2022-08-06T07:59:52;92199.81;;;27.41;67.27
10716;BME280;5409;42.620;23.316;2022-08-06T08:02:19;92203.69;;;27.38;64.61
10716;BME280;5409;42.620;23.316;2022-08-06T08:04:47;92198.00;;;27.72;67.49
10716;BME280;5409;42.620;23.316;2022-08-06T08:07:32;92197.63;;;27.27;64.24
10716;BME280;5409;42.620;23.316;2022-08-06T08:09:59;92195.31;;;27.66;64.41
10716;BME280;5409;42.620;23.316;2022-08-06T08:12:28;92206.75;;;27.96;57.68
10716;BME280;5409;42.620;23.316;2022-08-06T08:14:55;92204.84;;;28.26;57.80
10716;BME280;5409;42.620;23.316;2022-08-06T08:17:23;92202.91;;;28.57;61.87
10716;BME280;5409;42.620;23.316;2022-08-06T08:19:50;92202.84;;;28.42;54.42
10716;BME280;5409;42.620;23.316;2022-08-06T08:22:18;92200.13;;;28.64;56.06
10716;BME280;5409;42.620;23.316;2022-08-06T08:24:46;92205.69;;;28.14;50.86
10716;BME280;5409;42.620;23.316;2022-08-06T08:27:14;92211.41;;;28.29;49.61
10716;BME280;5409;42.620;23.316;2022-08-06T08:29:42;92202.59;;;28.25;57.66
10716;BME280;5409;42.620;23.316;2022-08-06T08:32:09;92200.84;;;28.50;59.76
10716;BME280;5409;42.620;23.316;2022-08-06T08:34:36;92203.78;;;28.95;56.31
10716;BME280;5409;42.620;23.316;2022-08-06T08:37:03;92205.47;;;28.90;51.65
10716;BME280;5409;42.620;23.316;2022-08-06T08:39:31;92209.22;;;28.85;50.42
10716;BME280;5409;42.620;23.316;2022-08-06T08:42:02;92208.78;;;28.74;48.05
10716;BME280;5409;42.620;23.316;2022-08-06T08:44:32;92208.34;;;28.55;48.52
10716;BME280;5409;42.620;23.316;2022-08-06T08:47:02;92206.81;;;29.12;50.58
10716;BME280;5409;42.620;23.316;2022-08-06T08:49:35;92213.72;;;29.03;50.12
10716;BME280;5409;42.620;23.316;2022-08-06T08:52:07;92207.31;;;28.88;50.90
10716;BME280;5409;42.620;23.316;2022-08-06T08:54:36;92214.69;;;29.20;45.88
10716;BME280;5409;42.620;23.316;2022-08-06T08:57:07;92209.63;;;29.12;47.20
10716;BME280;5409;42.620;23.316;2022-08-06T08:59:35;92220.88;;;29.34;50.25
10716;BME280;5409;42.620;23.316;2022-08-06T09:02:04;92209.84;;;29.73;43.79
10716;BME280;5409;42.620;23.316;2022-08-06T09:04:31;92211.63;;;30.31;43.45
10716;BME280;5409;42.620;23.316;2022-08-06T09:06:58;92207.91;;;30.21;41.75
10716;BME280;5409;42.620;23.316;2022-08-06T09:09:26;92211.81;;;30.25;48.46
10716;BME280;5409;42.620;23.316;2022-08-06T09:11:53;92201.41;;;30.57;42.70
10716;BME280;5409;42.620;23.316;2022-08-06T09:14:20;92203.28;;;30.94;40.54
10716;BME280;5409;42.620;23.316;2022-08-06T09:16:48;92213.41;;;30.65;46.78
10716;BME280;5409;42.620;23.316;2022-08-06T09:19:16;92206.16;;;30.87;39.87
10716;BME280;5409;42.620;23.316;2022-08-06T09:21:44;92199.16;;;30.95;40.08
10716;BME280;5409;42.620;23.316;2022-08-06T09:24:10;92199.25;;;31.44;40.76
10716;BME280;5409;42.620;23.316;2022-08-06T09:26:37;92199.34;;;31.78;36.99
10716;BME280;5409;42.620;23.316;2022-08-06T09:29:18;92196.19;;;31.74;37.46
10716;BME280;5409;42.620;23.316;2022-08-06T09:31:45;92194.94;;;32.43;37.65
10716;BME280;5409;42.620;23.316;2022-08-06T09:34:12;92191.53;;;32.61;37.31
10716;BME280;5409;42.620;23.316;2022-08-06T09:36:45;92197.50;;;32.48;36.15
10716;BME280;5409;42.620;23.316;2022-08-06T09:39:12;92190.06;;;32.26;35.69
10716;BME280;5409;42.620;23.316;2022-08-06T09:41:45;92192.63;;;32.32;33.64
10716;BME280;5409;42.620;23.316;2022-08-06T09:44:13;92192.09;;;32.60;35.09
10716;BME280;5409;42.620;23.316;2022-08-06T09:46:41;92190.28;;;32.72;35.54
10716;BME280;5409;42.620;23.316;2022-08-06T09:49:09;92187.72;;;32.32;38.27
10716;BME280;5409;42.620;23.316;2022-08-06T09:51:37;92187.13;;;32.84;37.59
10716;BME280;5409;42.620;23.316;2022-08-06T09:54:06;92188.22;;;33.15;33.68
10716;BME280;5409;42.620;23.316;2022-08-06T09:56:34;92186.97;;;33.35;34.68
10716;BME280;5409;42.620;23.316;2022-08-06T09:59:03;92191.06;;;33.51;36.58
10716;BME280;5409;42.620;23.316;2022-08-06T10:01:38;92186.88;;;33.79;36.86
10716;BME280;5409;42.620;23.316;2022-08-06T10:04:05;92179.72;;;33.78;33.12
10716;BME280;5409;42.620;23.316;2022-08-06T10:06:32;92192.50;;;34.24;32.87
10716;BME280;5409;42.620;23.316;2022-08-06T10:09:07;92182.53;;;34.51;33.17
10716;BME280;5409;42.620;23.316;2022-08-06T10:11:37;92179.13;;;34.34;31.82
10716;BME280;5409;42.620;23.316;2022-08-06T10:14:04;92183.44;;;34.63;30.72
10716;BME280;5409;42.620;23.316;2022-08-06T10:16:31;92175.19;;;34.01;33.40
10716;BME280;5409;42.620;23.316;2022-08-06T10:18:59;92172.84;;;34.35;32.04
10716;BME280;5409;42.620;23.316;2022-08-06T10:21:29;92164.50;;;33.64;33.31
10716;BME280;5409;42.620;23.316;2022-08-06T10:24:00;92167.81;;;33.89;33.69
10716;BME280;5409;42.620;23.316;2022-08-06T10:26:30;92178.28;;;33.96;31.85
10716;BME280;5409;42.620;23.316;2022-08-06T10:29:01;92173.75;;;33.74;32.44
10716;BME280;5409;42.620;23.316;2022-08-06T10:31:29;92168.72;;;34.65;33.35
10716;BME280;5409;42.620;23.316;2022-08-06T10:33:59;92171.53;;;34.74;31.60
10716;BME280;5409;42.620;23.316;2022-08-06T10:36:31;92168.69;;;34.55;29.94
10716;BME280;5409;42.620;23.316;2022-08-06T10:39:01;92166.41;;;34.16;31.95
10716;BME280;5409;42.620;23.316;2022-08-06T10:41:29;92174.50;;;34.38;33.36
10716;BME280;5409;42.620;23.316;2022-08-06T10:43:56;92169.56;;;34.58;31.12
10716;BME280;5409;42.620;23.316;2022-08-06T10:46:24;92167.63;;;34.51;32.35
10716;BME280;5409;42.620;23.316;2022-08-06T10:48:51;92160.41;;;35.25;30.23
10716;BME280;5409;42.620;23.316;2022-08-06T10:51:19;92160.75;;;35.90;29.94
10716;BME280;5409;42.620;23.316;2022-08-06T10:53:46;92166.03;;;35.84;27.51
10716;BME280;5409;42.620;23.316;2022-08-06T10:56:14;92164.09;;;35.37;26.69
10716;BME280;5409;42.620;23.316;2022-08-06T10:58:42;92158.94;;;35.15;29.35
10716;BME280;5409;42.620;23.316;2022-08-06T11:01:12;92155.72;;;34.90;29.95
10716;BME280;5409;42.620;23.316;2022-08-06T11:03:53;92156.25;;;34.98;27.31
10716;BME280;5409;42.620;23.316;2022-08-06T11:06:39;92143.94;;;34.84;27.56
10716;BME280;5409;42.620;23.316;2022-08-06T11:09:18;92143.13;;;35.12;28.24
10716;BME280;5409;42.620;23.316;2022-08-06T11:11:58;92147.03;;;34.03;31.16
10716;BME280;5409;42.620;23.316;2022-08-06T11:14:29;92151.00;;;33.81;31.90
10716;BME280;5409;42.620;23.316;2022-08-06T11:16:57;92141.16;;;33.73;32.66
10716;BME280;5409;42.620;23.316;2022-08-06T11:19:44;92145.56;;;32.94;34.23
10716;BME280;5409;42.620;23.316;2022-08-06T11:22:34;92142.41;;;32.13;34.92
10716;BME280;5409;42.620;23.316;2022-08-06T11:25:03;92138.38;;;31.65;35.47
10716;BME280;5409;42.620;23.316;2022-08-06T11:27:52;92142.47;;;31.23;37.19
10716;BME280;5409;42.620;23.316;2022-08-06T11:30:36;92141.22;;;31.65;37.14
10716;BME280;5409;42.620;23.316;2022-08-06T11:33:03;92126.31;;;32.40;35.75
10716;BME280;5409;42.620;23.316;2022-08-06T11:35:44;92129.56;;;33.42;30.49
10716;BME280;5409;42.620;23.316;2022-08-06T11:38:14;92134.50;;;34.06;28.50
10716;BME280;5409;42.620;23.316;2022-08-06T11:40:55;92148.53;;;34.99;28.43
10716;BME280;5409;42.620;23.316;2022-08-06T11:43:48;92139.59;;;35.82;27.68
10716;BME280;5409;42.620;23.316;2022-08-06T11:46:22;92136.53;;;36.61;29.05
10716;BME280;5409;42.620;23.316;2022-08-06T11:49:14;92139.94;;;36.28;26.44
10716;BME280;5409;42.620;23.316;2022-08-06T11:51:43;92135.97;;;35.60;28.36
10716;BME280;5409;42.620;23.316;2022-08-06T11:54:14;92146.47;;;34.52;30.86
10716;BME280;5409;42.620;23.316;2022-08-06T11:57:19;92145.06;;;33.87;31.35
10716;BME280;5409;42.620;23.316;2022-08-06T12:00:00;92142.25;;;33.15;33.26
10716;BME280;5409;42.620;23.316;2022-08-06T12:02:59;92141.41;;;32.18;33.71
10716;BME280;5409;42.620;23.316;2022-08-06T12:05:33;92133.03;;;31.52;37.06
10716;BME280;5409;42.620;23.316;2022-08-06T12:11:24;92138.75;;;30.89;41.95
10716;BME280;5409;42.620;23.316;2022-08-06T12:13:53;92136.63;;;30.65;43.13
10716;BME280;5409;42.620;23.316;2022-08-06T12:16:31;92132.00;;;30.52;42.05
10716;BME280;5409;42.620;23.316;2022-08-06T12:19:00;92130.59;;;30.29;43.80
10716;BME280;5409;42.620;23.316;2022-08-06T12:21:28;92129.59;;;30.02;43.72
10716;BME280;5409;42.620;23.316;2022-08-06T12:23:55;92124.59;;;29.63;47.38
10716;BME280;5409;42.620;23.316;2022-08-06T12:26:22;92130.97;;;29.34;49.62
10716;BME280;5409;42.620;23.316;2022-08-06T12:28:50;92129.88;;;29.29;53.59
10716;BME280;5409;42.620;23.316;2022-08-06T12:31:31;92124.63;;;29.26;53.65
10716;BME280;5409;42.620;23.316;2022-08-06T12:34:00;92120.72;;;29.07;48.62
10716;BME280;5409;42.620;23.316;2022-08-06T12:36:29;92127.06;;;29.00;58.75
10716;BME280;5409;42.620;23.316;2022-08-06T12:38:58;92126.44;;;28.71;62.89
10716;BME280;5409;42.620;23.316;2022-08-06T12:41:39;92116.13;;;28.59;65.04
10716;BME280;5409;42.620;23.316;2022-08-06T12:44:11;92127.88;;;28.35;67.02
10716;BME280;5409;42.620;23.316;2022-08-06T12:46:39;92116.63;;;28.27;56.12
10716;BME280;5409;42.620;23.316;2022-08-06T12:49:07;92119.75;;;28.24;64.89
10716;BME280;5409;42.620;23.316;2022-08-06T12:51:35;92119.88;;;28.03;64.97
10716;BME280;5409;42.620;23.316;2022-08-06T12:54:04;92118.97;;;28.16;69.39
10716;BME280;5409;42.620;23.316;2022-08-06T12:56:32;92107.84;;;28.31;66.82
10716;BME280;5409;42.620;23.316;2022-08-06T12:59:02;92109.75;;;28.43;64.88
10716;BME280;5409;42.620;23.316;2022-08-06T13:01:31;92106.09;;;29.08;52.52
10716;BME280;5409;42.620;23.316;2022-08-06T13:04:00;92093.72;;;30.49;56.79
10716;BME280;5409;42.620;23.316;2022-08-06T13:06:32;92096.00;;;31.90;61.29
10716;BME280;5409;42.620;23.316;2022-08-06T13:09:00;92091.97;;;32.87;40.96
10716;BME280;5409;42.620;23.316;2022-08-06T13:11:32;92098.84;;;32.93;42.60
10716;BME280;5409;42.620;23.316;2022-08-06T13:14:06;92104.19;;;32.63;36.94
10716;BME280;5409;42.620;23.316;2022-08-06T13:16:42;92115.63;;;32.22;39.27